Terminal Aerodrome Forecast
Issued by NWS

Home | Current Version | Previous Version | Text Only | Print | Product List | Glossary On
Versions: 1 2 3 4 5 6 7 8 9 10 11 12 13 14 15 16 17 18 19 20 21 22 23 24 25 26 27 28
000
FTUS46 KOTX 301120
TAFPUW
TAF
KPUW 301120Z 3012/0112 24012KT P6SM VCSH SCT025 BKN050 OVC070
     FM301600 25016G22KT P6SM FEW030 SCT050 BKN070
     FM010200 24009KT P6SM SCT070 SCT100
     FM011000 25005KT P6SM FEW100=

USA.gov is the U.S. government's official web portal to all federal, state and local government web resources and services.